Time;durP1;ratioP1;P1;durP2;ratioP2;P2;SDS_P1;SDS_P2;PMS_P1;PMS_P2;Temp;Humidity;BMP_temperature;BMP_pressure;BME280_temperature;BME280_humidity;BME280_pressure;Samples;Min_cycle;Max_cycle;Signal;HPM_P1;HPM_P2
2023/01/17 00:02:07;;;;;;;1.77;1.27;;;3.40;99.90;;;;;;5090897;28;20415;-71
2023/01/17 00:10:09;;;;;;;1.83;1.30;;;3.10;99.90;;;;;;5071902;28;20383;-71
2023/01/17 00:12:35;;;;;;;2.13;1.93;;;3.20;99.90;;;;;;5070652;28;20404;-71
2023/01/17 00:15:01;;;;;;;2.50;1.80;;;3.20;99.90;;;;;;5080997;28;20426;-71
2023/01/17 00:17:28;;;;;;;3.83;2.00;;;3.20;99.90;;;;;;5091686;28;20424;-71
2023/01/17 01:35:10;;;;;;;1.23;0.83;;;4.00;99.90;;;;;;5086433;28;20423;-71
2023/01/17 01:37:35;;;;;;;1.97;1.13;;;4.00;99.90;;;;;;5074236;28;20448;-70
2023/01/17 01:40:01;;;;;;;3.33;1.37;;;3.90;99.90;;;;;;5074275;28;20570;-71
2023/01/17 01:42:27;;;;;;;3.50;1.40;;;3.70;99.90;;;;;;5074335;28;20170;-71
2023/01/17 01:44:53;;;;;;;4.40;1.20;;;3.50;99.90;;;;;;5078505;28;20254;-71
2023/01/17 01:47:24;;;;;;;1.37;1.00;;;3.60;99.90;;;;;;5093848;28;20212;-70
2023/01/17 01:49:50;;;;;;;1.80;0.87;;;3.60;99.90;;;;;;5094406;28;20870;-71
2023/01/17 01:52:19;;;;;;;2.47;1.20;;;3.60;99.90;;;;;;5094269;28;20406;-71
2023/01/17 01:55:01;;;;;;;2.37;1.70;;;3.60;99.90;;;;;;5090184;28;20431;-71
2023/01/17 01:57:32;;;;;;;1.70;1.30;;;3.60;99.90;;;;;;5092591;28;20947;-71
2023/01/17 02:00:03;;;;;;;2.93;1.23;;;3.60;99.90;;;;;;5093843;28;20451;-71
2023/01/17 02:02:30;;;;;;;2.13;0.93;;;3.60;99.90;;;;;;5094215;28;20396;-71
2023/01/17 02:04:58;;;;;;;1.27;0.80;;;3.60;99.90;;;;;;5087474;28;20451;-70
2023/01/17 02:07:30;;;;;;;2.60;1.00;;;3.70;99.90;;;;;;5106064;28;20444;-71
2023/01/17 02:09:57;;;;;;;1.30;0.70;;;3.70;99.90;;;;;;5083997;28;20943;-70
2023/01/17 02:12:23;;;;;;;2.70;1.10;;;3.80;99.90;;;;;;5094008;28;20406;-71
2023/01/17 02:14:49;;;;;;;2.47;1.50;;;3.80;99.90;;;;;;5089817;28;20783;-71
2023/01/17 02:17:29;;;;;;;5.10;0.80;;;3.70;99.90;;;;;;5073378;28;20451;-71
2023/01/17 02:20:34;;;;;;;1.20;0.90;;;3.70;99.90;;;;;;5090833;28;20177;-71
2023/01/17 02:23:18;;;;;;;2.23;1.27;;;3.80;99.90;;;;;;5093641;28;20414;-71
2023/01/17 02:26:12;;;;;;;7.93;1.20;;;3.80;99.90;;;;;;5082101;28;20506;-71
2023/01/17 02:29:05;;;;;;;1.50;1.13;;;3.90;99.90;;;;;;5073767;28;20475;-71
2023/01/17 02:31:53;;;;;;;3.57;1.60;;;3.90;99.90;;;;;;5073295;28;20401;-71
2023/01/17 02:34:29;;;;;;;3.57;1.20;;;3.80;99.90;;;;;;5073074;28;20416;-71
2023/01/17 02:37:02;;;;;;;2.60;1.43;;;3.70;99.90;;;;;;5076706;28;20511;-71
2023/01/17 02:39:36;;;;;;;2.20;1.50;;;3.70;99.90;;;;;;5093363;28;20792;-70
2023/01/17 02:42:08;;;;;;;3.67;2.77;;;3.70;99.90;;;;;;5093426;28;20416;-71
2023/01/17 02:44:40;;;;;;;3.67;2.10;;;3.80;99.90;;;;;;5091856;28;20462;-70
2023/01/17 02:47:24;;;;;;;3.33;1.70;;;3.70;99.90;;;;;;5085114;28;20489;-70
2023/01/17 02:49:52;;;;;;;2.57;1.57;;;3.70;99.90;;;;;;5093197;28;20482;-71
2023/01/17 02:52:45;;;;;;;4.03;2.30;;;3.70;99.90;;;;;;5093537;28;21166;-71
2023/01/17 02:55:11;;;;;;;2.40;1.53;;;3.80;99.90;;;;;;5086684;28;20431;-71
2023/01/17 02:57:55;;;;;;;2.30;2.00;;;3.90;99.90;;;;;;5072716;28;20436;-71
2023/01/17 03:00:35;;;;;;;2.30;1.77;;;4.00;99.90;;;;;;5071787;28;20196;-71
2023/01/17 03:03:19;;;;;;;2.57;2.03;;;3.90;99.90;;;;;;5072797;28;20948;-70
2023/01/17 03:06:10;;;;;;;3.27;2.30;;;3.80;99.90;;;;;;5082086;28;20543;-71
2023/01/17 03:08:44;;;;;;;11.60;3.10;;;3.70;99.90;;;;;;5092023;28;20944;-70
2023/01/17 03:11:11;;;;;;;5.17;3.07;;;3.70;99.90;;;;;;5092897;28;20792;-71
2023/01/17 03:13:37;;;;;;;6.77;2.53;;;3.60;99.90;;;;;;5092792;28;20450;-70
2023/01/17 03:16:12;;;;;;;3.30;2.13;;;3.40;99.90;;;;;;5079516;28;20913;-70
2023/01/17 03:18:38;;;;;;;8.33;3.30;;;3.40;99.90;;;;;;5071978;28;20185;-71
2023/01/17 03:21:03;;;;;;;5.50;2.40;;;3.50;99.90;;;;;;5072319;28;20775;-71
2023/01/17 03:23:29;;;;;;;4.23;2.33;;;3.40;99.90;;;;;;5072391;28;20179;-71
2023/01/17 03:25:54;;;;;;;3.47;3.10;;;3.40;99.90;;;;;;5081864;28;20213;-70
2023/01/17 03:28:20;;;;;;;7.23;3.10;;;3.40;99.90;;;;;;5092118;28;20616;-71
2023/01/17 03:30:45;;;;;;;7.30;3.20;;;3.30;99.90;;;;;;5091582;28;20205;-70
2023/01/17 03:33:10;;;;;;;7.10;3.00;;;3.30;99.90;;;;;;5078361;28;20327;-71
2023/01/17 03:35:36;;;;;;;5.03;2.30;;;3.30;99.90;;;;;;5071871;28;20825;-70
2023/01/17 03:38:02;;;;;;;4.27;2.90;;;3.30;99.90;;;;;;5090533;28;20295;-70
2023/01/17 03:40:27;;;;;;;4.47;3.13;;;3.30;99.90;;;;;;5092432;28;20622;-69
2023/01/17 03:42:53;;;;;;;6.73;3.40;;;3.30;99.90;;;;;;5080945;28;20571;-71
2023/01/17 03:45:18;;;;;;;3.50;2.77;;;3.30;99.90;;;;;;5071800;28;20643;-70
2023/01/17 03:47:44;;;;;;;3.20;2.67;;;3.30;99.90;;;;;;5085122;28;20192;-70
2023/01/17 03:50:11;;;;;;;4.00;2.50;;;3.30;99.90;;;;;;5092110;28;20248;-70
2023/01/17 03:52:37;;;;;;;3.03;2.20;;;3.30;99.90;;;;;;5083689;28;20181;-70
2023/01/17 03:55:03;;;;;;;3.60;2.87;;;3.40;99.90;;;;;;5071733;28;20412;-70
2023/01/17 03:57:29;;;;;;;3.93;3.13;;;3.50;99.90;;;;;;5072050;28;20201;-71
2023/01/17 03:59:55;;;;;;;4.80;3.10;;;3.40;99.90;;;;;;5071892;28;20400;-71
2023/01/17 04:02:20;;;;;;;3.90;3.20;;;3.40;99.90;;;;;;5076871;28;20179;-71
2023/01/17 04:04:46;;;;;;;3.63;2.77;;;3.40;99.90;;;;;;5091655;28;20707;-70
2023/01/17 04:07:11;;;;;;;12.70;9.10;;;3.30;99.90;;;;;;5091979;28;20185;-70
2023/01/17 04:09:37;;;;;;;9.73;5.30;;;3.50;99.90;;;;;;5091901;28;20553;-70
2023/01/17 04:12:02;;;;;;;6.93;4.30;;;3.40;99.90;;;;;;5088997;28;20162;-70
2023/01/17 04:14:28;;;;;;;3.93;2.70;;;3.50;99.90;;;;;;5071597;28;20197;-70
2023/01/17 04:16:54;;;;;;;5.80;3.57;;;3.40;99.90;;;;;;5071760;28;20255;-70
2023/01/17 04:19:20;;;;;;;3.97;3.03;;;3.40;99.90;;;;;;5071777;28;20198;-70
2023/01/17 04:21:45;;;;;;;3.93;2.33;;;3.40;99.90;;;;;;5071709;28;20408;-70
2023/01/17 04:24:11;;;;;;;4.70;2.73;;;3.20;99.90;;;;;;5071502;28;20170;-71
2023/01/17 04:26:36;;;;;;;3.50;3.20;;;3.20;99.90;;;;;;5071235;28;20537;-71
2023/01/17 04:29:03;;;;;;;7.30;4.10;;;3.30;99.90;;;;;;5073676;28;20169;-70
2023/01/17 04:31:29;;;;;;;4.67;3.17;;;3.30;99.90;;;;;;5094433;28;20172;-70
2023/01/17 04:33:54;;;;;;;6.80;3.67;;;3.30;99.90;;;;;;5094650;28;20780;-71
2023/01/17 04:36:20;;;;;;;3.40;2.97;;;3.30;99.90;;;;;;5087885;28;20219;-71
2023/01/17 04:38:45;;;;;;;8.80;3.90;;;3.20;99.90;;;;;;5091641;28;20741;-71
2023/01/17 04:41:11;;;;;;;4.90;2.97;;;3.20;99.90;;;;;;5095505;28;20691;-70
2023/01/17 04:43:36;;;;;;;3.37;2.90;;;3.10;99.90;;;;;;5091844;28;20662;-71
2023/01/17 04:46:04;;;;;;;4.90;2.87;;;3.00;99.90;;;;;;5075851;28;20190;-71
2023/01/17 04:48:30;;;;;;;3.90;2.90;;;3.00;99.90;;;;;;5073951;28;20189;-71
2023/01/17 04:51:00;;;;;;;9.83;4.63;;;3.00;99.90;;;;;;5075340;28;20400;-70
2023/01/17 04:53:25;;;;;;;5.60;3.63;;;3.00;99.90;;;;;;5075298;28;20475;-70
2023/01/17 04:55:51;;;;;;;3.20;2.33;;;3.00;99.90;;;;;;5094831;28;20510;-70
2023/01/17 04:58:16;;;;;;;6.70;3.07;;;3.10;99.90;;;;;;5095382;28;20182;-70
2023/01/17 05:00:42;;;;;;;9.10;3.27;;;3.00;99.90;;;;;;5095335;28;20536;-71
2023/01/17 05:03:07;;;;;;;7.90;2.70;;;3.00;99.90;;;;;;5095340;28;20197;-70
2023/01/17 05:05:33;;;;;;;4.37;2.53;;;3.00;99.90;;;;;;5076353;28;20201;-71
2023/01/17 05:07:59;;;;;;;3.10;2.43;;;2.90;99.90;;;;;;5074814;28;20183;-71
2023/01/17 05:10:24;;;;;;;6.07;4.00;;;2.90;99.90;;;;;;5074924;28;20245;-70
2023/01/17 05:12:58;;;;;;;4.50;2.30;;;2.80;99.90;;;;;;5074887;28;20166;-71
2023/01/17 05:15:24;;;;;;;4.90;3.00;;;2.80;99.90;;;;;;5090902;28;20211;-71
2023/01/17 05:17:51;;;;;;;4.90;3.10;;;2.80;99.90;;;;;;5093623;28;20462;-70
2023/01/17 05:20:18;;;;;;;3.57;2.80;;;2.70;99.90;;;;;;5094953;28;20953;-71
2023/01/17 05:22:43;;;;;;;4.50;2.70;;;2.90;99.90;;;;;;5095021;28;20403;-70
2023/01/17 05:25:09;;;;;;;4.03;2.70;;;2.80;99.90;;;;;;5094269;28;20584;-70
2023/01/17 05:27:35;;;;;;;3.77;2.33;;;2.90;99.90;;;;;;5094622;28;20190;-71
2023/01/17 05:30:01;;;;;;;3.23;2.67;;;2.90;99.90;;;;;;5094814;28;20157;-70
2023/01/17 05:32:26;;;;;;;3.70;2.60;;;2.90;99.90;;;;;;5094682;28;20893;-71
2023/01/17 05:34:52;;;;;;;5.03;2.70;;;2.80;99.90;;;;;;5082605;28;20189;-70
2023/01/17 05:37:17;;;;;;;4.77;2.57;;;2.80;99.90;;;;;;5074380;28;20186;-70
2023/01/17 05:39:43;;;;;;;3.50;2.77;;;2.80;99.90;;;;;;5074380;28;20239;-70
2023/01/17 05:42:09;;;;;;;4.50;2.90;;;2.80;99.90;;;;;;5074054;28;20166;-71
2023/01/17 05:44:34;;;;;;;3.13;2.73;;;2.80;99.90;;;;;;5082497;28;21154;-70
2023/01/17 05:47:00;;;;;;;4.10;2.60;;;2.80;99.90;;;;;;5094346;28;20190;-70
2023/01/17 05:49:25;;;;;;;4.40;2.30;;;2.80;99.90;;;;;;5092669;28;20188;-70
2023/01/17 05:51:51;;;;;;;4.03;2.77;;;2.90;99.90;;;;;;5094406;28;20527;-70
2023/01/17 05:54:16;;;;;;;3.70;2.90;;;2.80;99.90;;;;;;5094025;28;20173;-71
2023/01/17 05:56:42;;;;;;;3.47;2.50;;;2.80;99.90;;;;;;5094313;28;20170;-70
2023/01/17 05:59:07;;;;;;;7.27;3.20;;;2.80;99.90;;;;;;5080327;28;20261;-70
2023/01/17 06:01:33;;;;;;;5.97;3.00;;;2.80;99.90;;;;;;5073926;28;20562;-69
2023/01/17 06:03:58;;;;;;;8.57;2.73;;;2.70;99.90;;;;;;5073829;28;20166;-70
2023/01/17 06:06:27;;;;;;;5.77;3.20;;;2.80;99.90;;;;;;5073535;28;20225;-71
2023/01/17 06:08:52;;;;;;;5.63;2.97;;;2.60;99.90;;;;;;5092465;28;20222;-71
2023/01/17 06:11:18;;;;;;;5.00;2.60;;;2.60;99.90;;;;;;5094039;28;20404;-71
2023/01/17 06:13:43;;;;;;;6.70;3.50;;;2.60;99.90;;;;;;5093992;28;20183;-70
2023/01/17 06:16:09;;;;;;;12.70;3.70;;;2.50;99.90;;;;;;5092332;28;21027;-71
2023/01/17 06:18:34;;;;;;;5.47;3.60;;;2.40;99.90;;;;;;5077373;28;20660;-70
2023/01/17 06:21:00;;;;;;;4.30;3.33;;;2.30;99.90;;;;;;5073557;28;20170;-70
2023/01/17 06:23:27;;;;;;;5.10;3.00;;;2.30;99.90;;;;;;5073536;28;20183;-69
2023/01/17 06:25:52;;;;;;;5.17;3.20;;;2.20;99.90;;;;;;5073159;28;20201;-70
2023/01/17 06:28:20;;;;;;;3.20;2.47;;;2.20;99.90;;;;;;5086721;28;20447;-70
2023/01/17 06:30:46;;;;;;;4.10;3.10;;;2.10;99.90;;;;;;5093602;28;20172;-69
2023/01/17 06:33:13;;;;;;;4.57;2.87;;;2.10;99.90;;;;;;5093470;28;20396;-70
2023/01/17 06:35:43;;;;;;;3.10;2.17;;;2.10;99.90;;;;;;5093300;28;20498;-69
2023/01/17 06:38:08;;;;;;;7.70;3.20;;;2.00;99.90;;;;;;5081042;28;20480;-71
2023/01/17 06:40:34;;;;;;;5.43;3.43;;;1.90;99.90;;;;;;5073313;28;20447;-70
2023/01/17 06:43:04;;;;;;;10.70;3.53;;;1.80;99.90;;;;;;5073167;28;20234;-70
2023/01/17 06:45:32;;;;;;;6.03;2.97;;;1.80;99.90;;;;;;5072667;28;20194;-70
2023/01/17 06:47:59;;;;;;;3.93;2.83;;;1.80;99.90;;;;;;5082835;28;20842;-71
2023/01/17 06:50:25;;;;;;;5.70;3.67;;;1.80;99.90;;;;;;5093276;28;20800;-70
2023/01/17 06:52:59;;;;;;;6.50;2.73;;;1.80;99.90;;;;;;5092550;28;20874;-69
2023/01/17 06:55:29;;;;;;;4.97;3.10;;;1.80;99.90;;;;;;5092902;28;20430;-69
2023/01/17 06:57:56;;;;;;;4.50;2.70;;;1.80;99.90;;;;;;5083341;28;20452;-70
2023/01/17 07:00:22;;;;;;;3.27;2.10;;;1.70;99.90;;;;;;5072734;28;20438;-70
2023/01/17 07:02:49;;;;;;;5.50;2.77;;;1.70;99.90;;;;;;5072827;28;20408;-71
2023/01/17 07:05:16;;;;;;;3.70;2.60;;;1.70;99.90;;;;;;5090179;28;20893;-71
2023/01/17 07:07:42;;;;;;;8.00;3.33;;;1.80;99.90;;;;;;5093003;28;20427;-70
2023/01/17 07:10:09;;;;;;;3.93;2.60;;;1.80;99.90;;;;;;5092947;28;20493;-70
2023/01/17 07:12:34;;;;;;;4.10;2.60;;;1.80;99.90;;;;;;5092801;28;20769;-70
2023/01/17 07:15:00;;;;;;;4.33;3.37;;;1.80;99.90;;;;;;5077313;28;20436;-70
2023/01/17 07:17:25;;;;;;;3.50;3.00;;;1.80;99.90;;;;;;5072385;28;20189;-69
2023/01/17 07:19:51;;;;;;;15.00;3.90;;;1.80;99.90;;;;;;5072588;28;20165;-70
2023/01/17 07:22:16;;;;;;;5.50;3.23;;;1.80;99.90;;;;;;5071150;28;20205;-71
2023/01/17 07:24:42;;;;;;;4.20;2.57;;;1.70;99.90;;;;;;5084073;28;20218;-69
2023/01/17 07:27:08;;;;;;;3.63;3.07;;;1.70;99.90;;;;;;5092529;28;20269;-70
2023/01/17 07:29:33;;;;;;;3.60;2.53;;;1.70;99.90;;;;;;5092434;28;20216;-70
2023/01/17 07:31:59;;;;;;;4.23;3.07;;;1.80;99.90;;;;;;5092341;28;20161;-70
2023/01/17 07:34:24;;;;;;;6.00;2.60;;;1.70;99.90;;;;;;5082205;28;20197;-70
2023/01/17 07:36:50;;;;;;;8.93;2.50;;;1.80;99.90;;;;;;5070875;28;20214;-70
2023/01/17 07:39:15;;;;;;;4.50;3.10;;;1.80;99.90;;;;;;5072038;28;20185;-70
2023/01/17 07:41:41;;;;;;;4.53;2.90;;;1.80;99.90;;;;;;5072221;28;20211;-71
2023/01/17 07:44:09;;;;;;;6.73;2.97;;;2.00;99.90;;;;;;5078715;28;20193;-70
2023/01/17 07:46:34;;;;;;;4.07;2.30;;;2.00;99.90;;;;;;5092034;28;20480;-70
2023/01/17 07:49:00;;;;;;;6.73;3.40;;;2.20;99.90;;;;;;5092238;28;20403;-70
2023/01/17 07:51:26;;;;;;;6.20;3.73;;;2.20;99.90;;;;;;5092274;28;20175;-71
2023/01/17 07:53:51;;;;;;;3.27;2.77;;;2.30;99.90;;;;;;5087374;28;20816;-70
2023/01/17 07:56:17;;;;;;;6.67;3.00;;;2.40;99.90;;;;;;5071590;28;20170;-70
2023/01/17 07:58:42;;;;;;;4.23;2.50;;;2.50;99.90;;;;;;5071697;28;20198;-69
2023/01/17 08:01:13;;;;;;;3.23;2.70;;;2.60;99.90;;;;;;5071904;28;20170;-70
2023/01/17 08:03:39;;;;;;;7.70;3.67;;;2.70;99.90;;;;;;5074296;28;20205;-70
2023/01/17 08:06:28;;;;;;;4.60;3.13;;;2.80;99.90;;;;;;5091544;28;20447;-71
2023/01/17 08:08:55;;;;;;;6.33;3.13;;;2.80;99.90;;;;;;5092127;28;20400;-71
2023/01/17 08:11:20;;;;;;;6.27;2.80;;;2.90;99.90;;;;;;5092060;28;20427;-71
2023/01/17 08:13:46;;;;;;;2.73;2.37;;;3.00;99.90;;;;;;5088466;28;20420;-70
2023/01/17 08:16:12;;;;;;;4.63;2.40;;;3.20;99.90;;;;;;5071617;28;20177;-71
2023/01/17 08:18:38;;;;;;;3.67;2.60;;;3.30;99.90;;;;;;5071636;28;20416;-70
2023/01/17 08:21:11;;;;;;;5.43;2.53;;;3.50;99.90;;;;;;5071806;28;20882;-71
2023/01/17 08:23:36;;;;;;;4.40;2.53;;;3.80;99.90;;;;;;5073101;28;20404;-70
2023/01/17 08:26:02;;;;;;;7.10;3.70;;;3.90;99.90;;;;;;5091185;28;20825;-70
2023/01/17 08:28:27;;;;;;;6.90;2.63;;;4.10;99.90;;;;;;5091751;28;20197;-70
2023/01/17 08:30:53;;;;;;;5.70;3.13;;;4.60;99.90;;;;;;5092000;28;20220;-70
2023/01/17 08:33:18;;;;;;;9.63;3.00;;;5.20;99.90;;;;;;5091808;28;20166;-70
2023/01/17 08:35:54;;;;;;;2.80;2.10;;;5.60;99.90;;;;;;5072231;28;20311;-70
2023/01/17 08:38:22;;;;;;;3.50;2.70;;;6.00;99.90;;;;;;5071361;28;20213;-71
2023/01/17 08:40:50;;;;;;;3.60;2.73;;;6.40;99.90;;;;;;5071571;28;20761;-70
2023/01/17 08:43:17;;;;;;;5.43;3.10;;;6.70;99.90;;;;;;5071503;28;20408;-71
2023/01/17 08:45:47;;;;;;;3.03;2.53;;;7.10;99.90;;;;;;5089662;28;20451;-71
2023/01/17 08:48:14;;;;;;;5.60;1.83;;;8.10;99.90;;;;;;5091616;28;20521;-71
2023/01/17 08:50:39;;;;;;;3.97;2.57;;;9.20;99.90;;;;;;5091540;28;20399;-71
2023/01/17 08:53:05;;;;;;;3.20;2.40;;;10.60;99.90;;;;;;5090352;28;21030;-71
2023/01/17 08:55:32;;;;;;;4.90;2.60;;;12.40;99.90;;;;;;5074420;28;20174;-70
2023/01/17 08:57:57;;;;;;;3.40;2.50;;;14.00;99.90;;;;;;5071378;28;20301;-71
2023/01/17 09:00:23;;;;;;;5.00;2.20;;;15.40;95.60;;;;;;5071387;28;20495;-71
2023/01/17 09:02:52;;;;;;;2.13;1.93;;;16.50;90.30;;;;;;5070910;28;20231;-71
2023/01/17 09:05:18;;;;;;;2.60;1.87;;;18.00;90.00;;;;;;5085414;28;20207;-72
2023/01/17 09:07:44;;;;;;;2.37;2.17;;;18.90;71.60;;;;;;5086257;28;20515;-71
2023/01/17 09:10:10;;;;;;;6.87;2.77;;;19.50;58.40;;;;;;5071334;28;20171;-71
2023/01/17 09:12:35;;;;;;;3.10;2.50;;;20.20;56.50;;;;;;5071276;28;20171;-69
2023/01/17 09:15:01;;;;;;;4.70;2.20;;;20.50;55.10;;;;;;5070969;28;20413;-69
2023/01/17 09:17:27;;;;;;;4.40;2.77;;;21.00;55.60;;;;;;5080808;28;20612;-69
2023/01/17 09:19:53;;;;;;;4.40;2.00;;;21.20;53.00;;;;;;5094191;28;20454;-70
2023/01/17 09:22:18;;;;;;;2.40;2.20;;;21.30;51.10;;;;;;5095112;28;20177;-71
2023/01/17 09:24:44;;;;;;;3.43;2.17;;;21.00;49.20;;;;;;5094572;28;20412;-69
2023/01/17 09:27:09;;;;;;;2.20;2.00;;;20.70;46.80;;;;;;5090638;28;20183;-68
2023/01/17 09:29:35;;;;;;;3.40;2.20;;;20.70;49.30;;;;;;5074646;28;20178;-68
2023/01/17 09:32:01;;;;;;;3.53;2.53;;;21.10;51.30;;;;;;5075642;28;20652;-69
2023/01/17 09:34:26;;;;;;;4.20;3.20;;;21.40;48.00;;;;;;5074244;28;20174;-69
2023/01/17 09:36:52;;;;;;;2.97;2.10;;;22.00;50.50;;;;;;5074474;28;20197;-69
2023/01/17 09:39:18;;;;;;;8.50;2.67;;;21.90;46.00;;;;;;5074319;28;20209;-69
2023/01/17 09:41:55;;;;;;;4.80;2.27;;;22.10;45.80;;;;;;5080543;28;20431;-69
2023/01/17 09:44:23;;;;;;;5.53;2.07;;;22.70;47.70;;;;;;5094167;28;20252;-69
2023/01/17 09:46:52;;;;;;;4.37;2.20;;;23.50;47.60;;;;;;5094375;28;20422;-70
2023/01/17 09:49:33;;;;;;;3.43;2.00;;;24.60;48.10;;;;;;5094465;28;20404;-70
2023/01/17 09:51:59;;;;;;;2.90;1.90;;;25.50;45.10;;;;;;5084608;28;20417;-70
2023/01/17 09:54:32;;;;;;;2.40;1.97;;;26.10;45.90;;;;;;5106240;28;20425;-70
2023/01/17 09:57:11;;;;;;;4.53;2.30;;;26.30;44.80;;;;;;5073942;28;20520;-69
2023/01/17 10:00:30;;;;;;;2.63;2.20;;;26.20;42.90;;;;;;5074019;28;20401;-69
2023/01/17 10:03:40;;;;;;;9.00;5.30;;;25.70;42.60;;;;;;5087389;28;20468;-70
2023/01/17 10:06:11;;;;;;;3.90;2.40;;;24.90;39.80;;;;;;5090591;28;20454;-70
2023/01/17 10:08:49;;;;;;;2.50;2.30;;;24.80;41.90;;;;;;5093976;28;20427;-71
2023/01/17 10:11:17;;;;;;;4.50;2.60;;;25.10;42.90;;;;;;5092028;28;20419;-70
2023/01/17 10:14:21;;;;;;;3.07;2.30;;;25.30;39.90;;;;;;5073822;28;20404;-71
2023/01/17 10:16:46;;;;;;;2.43;1.83;;;25.70;40.70;;;;;;5014772;28;20541;-71
2023/01/17 10:19:26;;;;;;;2.20;1.80;;;25.30;39.20;;;;;;5064819;28;20487;-72
2023/01/17 10:22:14;;;;;;;3.10;2.23;;;25.30;38.70;;;;;;5080131;28;20177;-71
2023/01/17 10:25:17;;;;;;;4.87;2.50;;;26.20;40.50;;;;;;5093450;28;20439;-71
2023/01/17 10:27:55;;;;;;;2.30;1.50;;;27.00;39.10;;;;;;5092544;28;20411;-71
2023/01/17 10:30:49;;;;;;;3.83;2.23;;;28.00;38.40;;;;;;5093753;28;20398;-70
2023/01/17 10:33:25;;;;;;;2.73;2.00;;;28.00;35.50;;;;;;5075590;28;20965;-71
2023/01/17 10:36:02;;;;;;;2.30;2.10;;;27.50;35.40;;;;;;5073113;28;20948;-71
2023/01/17 10:38:32;;;;;;;3.93;2.00;;;28.10;37.00;;;;;;5073144;28;20440;-72
2023/01/17 10:41:18;;;;;;;4.03;2.87;;;28.80;37.80;;;;;;5073142;28;20400;-71
2023/01/17 10:44:19;;;;;;;3.47;2.60;;;29.10;34.40;;;;;;5073195;28;20882;-71
2023/01/17 10:47:02;;;;;;;2.27;1.80;;;30.20;36.60;;;;;;5073147;28;20936;-70
2023/01/17 10:49:28;;;;;;;6.40;2.07;;;29.90;35.50;;;;;;5073025;28;20458;-69
2023/01/17 10:52:17;;;;;;;3.40;1.77;;;29.10;33.80;;;;;;5073398;28;20913;-68
2023/01/17 10:55:08;;;;;;;2.80;1.30;;;29.80;36.40;;;;;;5072643;28;20173;-69
2023/01/17 10:57:42;;;;;;;3.63;1.80;;;30.90;36.60;;;;;;5072846;28;20462;-69
2023/01/17 11:00:30;;;;;;;4.07;1.73;;;32.00;35.40;;;;;;5072874;28;20458;-69
2023/01/17 11:02:57;;;;;;;2.00;1.50;;;33.20;35.50;;;;;;5093920;28;20416;-70
2023/01/17 11:05:28;;;;;;;4.93;2.30;;;34.30;34.80;;;;;;5072410;28;20543;-69
2023/01/17 11:08:02;;;;;;;2.90;1.73;;;35.40;33.20;;;;;;5072663;28;20424;-69
2023/01/17 11:10:41;;;;;;;3.10;2.07;;;36.30;32.40;;;;;;5072625;28;20825;-70
2023/01/17 11:13:21;;;;;;;2.90;2.03;;;37.30;31.70;;;;;;5087999;28;20411;-70
2023/01/17 11:15:49;;;;;;;3.40;2.20;;;37.40;30.60;;;;;;5092509;28;20739;-69
2023/01/17 11:18:17;;;;;;;3.17;2.10;;;37.00;30.00;;;;;;5092789;28;20431;-70
2023/01/17 11:20:44;;;;;;;3.60;1.90;;;35.70;29.00;;;;;;5092743;28;20395;-70
2023/01/17 11:23:19;;;;;;;2.43;2.23;;;34.10;29.20;;;;;;5076648;28;20416;-70
2023/01/17 11:25:56;;;;;;;2.40;1.90;;;32.30;29.50;;;;;;5072105;28;20554;-69
2023/01/17 11:28:25;;;;;;;3.53;1.90;;;30.50;30.20;;;;;;5072492;28;20506;-70
2023/01/17 11:30:57;;;;;;;6.30;2.20;;;28.70;31.30;;;;;;5072283;28;20411;-70
2023/01/17 11:33:55;;;;;;;2.73;1.50;;;26.90;31.60;;;;;;5071254;28;20409;-72
2023/01/17 11:36:27;;;;;;;5.93;1.90;;;25.20;33.00;;;;;;5072037;28;20419;-70
2023/01/17 11:39:17;;;;;;;2.83;2.40;;;23.50;34.20;;;;;;5071622;28;20430;-70
2023/01/17 11:41:44;;;;;;;2.93;2.00;;;22.20;35.60;;;;;;5072293;28;20472;-71
2023/01/17 11:44:31;;;;;;;1.47;1.37;;;21.30;36.90;;;;;;5072340;28;20416;-70
2023/01/17 11:47:17;;;;;;;3.77;2.23;;;21.10;38.30;;;;;;5072144;28;20447;-71
2023/01/17 11:49:45;;;;;;;2.20;1.90;;;20.70;38.50;;;;;;5072092;28;21056;-72
2023/01/17 11:52:23;;;;;;;2.63;1.50;;;20.40;38.80;;;;;;5072178;28;20480;-72
2023/01/17 11:54:51;;;;;;;2.90;1.83;;;19.80;38.70;;;;;;5071692;28;20756;-72
2023/01/17 11:57:23;;;;;;;2.80;2.27;;;19.00;39.10;;;;;;5090839;28;20436;-71
2023/01/17 11:59:51;;;;;;;1.70;1.60;;;18.10;39.70;;;;;;5092175;28;20392;-71
2023/01/17 12:02:35;;;;;;;3.13;1.70;;;17.40;40.70;;;;;;5092121;28;20392;-71
2023/01/17 12:05:20;;;;;;;7.57;1.77;;;16.70;41.60;;;;;;5091795;28;20546;-71
2023/01/17 12:08:16;;;;;;;2.03;1.27;;;16.10;42.30;;;;;;5070530;28;20501;-71
2023/01/17 12:11:03;;;;;;;3.00;1.90;;;15.40;43.00;;;;;;5038754;28;20409;-71
2023/01/17 12:13:59;;;;;;;3.30;1.63;;;14.90;43.70;;;;;;5070585;28;20404;-71
2023/01/17 12:16:53;;;;;;;1.40;1.30;;;14.60;44.50;;;;;;5070317;28;20419;-71
2023/01/17 12:19:47;;;;;;;3.27;1.63;;;14.20;44.90;;;;;;5090887;28;20473;-72
2023/01/17 12:22:23;;;;;;;2.67;1.30;;;13.80;45.40;;;;;;5092051;28;20392;-70
2023/01/17 12:24:59;;;;;;;2.43;1.73;;;13.50;46.30;;;;;;5091620;28;20446;-70
2023/01/17 12:27:31;;;;;;;3.03;1.10;;;13.20;47.00;;;;;;5091838;28;20512;-70
2023/01/17 12:30:32;;;;;;;2.97;1.67;;;13.00;47.50;;;;;;5082398;28;20419;-71
2023/01/17 12:33:41;;;;;;;4.70;1.70;;;12.70;47.90;;;;;;5071653;28;20446;-71
2023/01/17 12:36:18;;;;;;;3.60;1.50;;;12.70;48.60;;;;;;5071405;28;20443;-70
2023/01/17 12:38:46;;;;;;;4.53;1.80;;;12.60;48.90;;;;;;5071376;28;20531;-70
2023/01/17 12:41:31;;;;;;;2.27;1.70;;;12.40;48.90;;;;;;5075380;28;20955;-69
2023/01/17 12:43:59;;;;;;;2.03;1.80;;;12.30;49.30;;;;;;5091728;28;20398;-70
2023/01/17 12:46:42;;;;;;;2.73;1.47;;;12.00;49.40;;;;;;5091193;28;20508;-71
2023/01/17 12:49:18;;;;;;;3.33;1.93;;;11.80;49.90;;;;;;5091804;28;20819;-71
2023/01/17 12:51:46;;;;;;;3.70;1.63;;;11.50;50.10;;;;;;5094181;28;20396;-71
2023/01/17 12:54:18;;;;;;;2.10;1.93;;;10.90;50.70;;;;;;5084660;28;20420;-70
2023/01/17 12:56:56;;;;;;;1.97;1.47;;;10.50;51.60;;;;;;5075218;28;20756;-71
2023/01/17 12:59:38;;;;;;;1.57;1.30;;;10.40;52.50;;;;;;5075260;28;20396;-70
2023/01/17 13:02:30;;;;;;;1.53;1.43;;;10.10;53.30;;;;;;5087120;28;20423;-71
2023/01/17 13:05:04;;;;;;;1.80;1.23;;;9.80;54.80;;;;;;5095040;28;20450;-71
2023/01/17 13:07:29;;;;;;;2.80;1.40;;;9.50;55.50;;;;;;5094977;28;20974;-71
2023/01/17 13:10:14;;;;;;;2.93;1.53;;;9.30;56.20;;;;;;5095256;28;20412;-71
2023/01/17 13:12:40;;;;;;;3.70;1.67;;;9.00;57.50;;;;;;5078677;28;20219;-71
2023/01/17 13:15:17;;;;;;;2.07;1.53;;;8.90;58.10;;;;;;5074537;28;20392;-70
2023/01/17 13:17:46;;;;;;;2.40;1.07;;;8.90;59.10;;;;;;5074793;28;20943;-70
2023/01/17 13:20:21;;;;;;;2.60;1.20;;;9.00;60.50;;;;;;5074761;28;20423;-71
2023/01/17 13:22:48;;;;;;;2.97;1.33;;;8.90;62.00;;;;;;5074676;28;20410;-71
2023/01/17 13:25:36;;;;;;;5.90;1.80;;;8.90;61.20;;;;;;5094146;28;20451;-71
2023/01/17 13:28:21;;;;;;;2.80;0.87;;;8.80;61.30;;;;;;5094812;28;20518;-71
2023/01/17 13:31:20;;;;;;;3.80;2.10;;;8.90;62.30;;;;;;5094809;28;20388;-71
2023/01/17 13:34:05;;;;;;;2.83;1.27;;;9.00;63.10;;;;;;5093576;28;20415;-71
2023/01/17 13:36:46;;;;;;;1.60;1.30;;;9.20;65.20;;;;;;5079027;28;20781;-71
2023/01/17 13:39:14;;;;;;;2.33;1.13;;;9.40;65.80;;;;;;5074470;28;20432;-70
2023/01/17 13:41:57;;;;;;;1.67;1.27;;;9.40;65.30;;;;;;5074404;28;20407;-71
2023/01/17 13:44:27;;;;;;;1.63;1.27;;;9.30;63.30;;;;;;5074037;28;21017;-71
2023/01/17 13:47:11;;;;;;;1.70;1.30;;;9.30;63.30;;;;;;5074179;28;20443;-71
2023/01/17 13:49:40;;;;;;;5.00;1.40;;;9.30;65.30;;;;;;5074256;28;20443;-70
2023/01/17 13:52:19;;;;;;;3.00;1.23;;;9.60;67.40;;;;;;5074312;28;20792;-69
2023/01/17 13:54:47;;;;;;;2.70;1.30;;;9.60;67.60;;;;;;5074004;28;20519;-70
2023/01/17 13:57:40;;;;;;;3.70;1.23;;;9.40;67.70;;;;;;5074150;28;20935;-71
2023/01/17 14:00:14;;;;;;;2.40;1.47;;;9.20;67.90;;;;;;5072560;28;20905;-70
2023/01/17 14:02:41;;;;;;;4.20;1.63;;;9.00;67.80;;;;;;5073780;28;20880;-70
2023/01/17 14:05:17;;;;;;;3.67;1.53;;;8.60;66.60;;;;;;5078075;28;20833;-71
2023/01/17 14:07:45;;;;;;;3.50;2.43;;;8.20;67.40;;;;;;5092896;28;20564;-71
2023/01/17 14:10:33;;;;;;;4.10;2.00;;;7.90;70.40;;;;;;5087481;28;20416;-70
2023/01/17 14:13:00;;;;;;;3.40;2.87;;;7.50;76.20;;;;;;5073767;28;20405;-70
2023/01/17 14:15:27;;;;;;;11.47;3.20;;;7.20;83.10;;;;;;5073491;28;20393;-70
2023/01/17 14:18:01;;;;;;;3.07;1.83;;;7.00;90.20;;;;;;5073510;28;20420;-69
2023/01/17 14:20:41;;;;;;;5.83;2.37;;;6.80;94.60;;;;;;5073896;28;20476;-70
2023/01/17 14:23:31;;;;;;;2.33;1.77;;;6.80;99.50;;;;;;5073678;28;20481;-70
2023/01/17 14:25:59;;;;;;;5.83;2.63;;;6.70;99.90;;;;;;5071948;28;20459;-70
2023/01/17 14:28:30;;;;;;;3.50;2.23;;;6.60;99.90;;;;;;5073339;28;20436;-70
2023/01/17 14:30:58;;;;;;;2.60;2.20;;;6.60;99.90;;;;;;5073489;28;20432;-70
2023/01/17 14:33:29;;;;;;;4.03;1.97;;;6.50;99.90;;;;;;5074503;28;20511;-69
2023/01/17 14:36:02;;;;;;;3.27;1.50;;;6.50;99.90;;;;;;5073056;28;20408;-70
2023/01/17 14:38:30;;;;;;;7.30;2.50;;;6.40;99.90;;;;;;5073122;28;20586;-70